Accueil
METAR-TAF:

METAR-TAF

Aéroports :

Orléans, France

Base aérienne 123 Orléans-Bricy

latitude: 47-59N, longitude: 001-45E, altitude: 126 m

Observation

Le bulletin a été fait il y a 23 minutes, à 01:30 UTC
Vent calme
Température 13°C
Humidité 94%
Pression 1022 hPa
Visibilité: 1300 m
brume

METAR: LFOJ 170130Z AUTO 00000KT 4200 1300 R25/P2000 BR NSC 13/12 Q1022

Heure: 03:53 (01:53 UTC)

Prévision

Le bulletin a été fait il y a 11 heures et 53 minutes, à 14:00 UTC
Prévision valable du 16 à 15 UTC au 17 à 15 UTC
Vent 10 kt de sud/sud-ouest
Visibilité 10 km ou plus
pas de nuages en-dessous de 1500 mètres et pas de cumulonimbus.
Evoluant progressivement
du 17 à 01 UTC au 17 à 03 UTC
Vent 2 kt de direction variable
Probabilité 30% :
Temporairement
du 17 à 05 UTC au 17 à 07 UTC
Visibilité: 4000 m
brume

TAF: LFOJ 161400Z 1615/1715 21010KT CAVOK BECMG 1701/1703 VRB02KT PROB30 TEMPO 1705/1707 4000 BR

Observations et prévisions météorologiques de plus de 4000 aéroports (messages METAR et TAF).

Les stations disponibles sont représentées par des disques jaunes et rouges sur la carte.

Passer la souris dessus pour voir le nom de la station.

Cliquer dessus pour voir les observations et prévisions météorologiques.

Pour changer de carte: cliquez sur les boutons verts avec une croix noire pour zoomer, sur le bouton vert avec un tiret pour effectuer un zoom arrière, ou sur les flèches vertes pour les cartes adjacentes.


METAR-TAF: